createdAt,value
2019-02-22T00:00:27.481Z,37.50
2019-02-22T00:01:27.492Z,38.50
2019-02-22T00:02:27.445Z,38.20
2019-02-22T00:03:27.438Z,37.80
2019-02-22T00:04:27.421Z,37.00
2019-02-22T00:05:27.419Z,36.70
2019-02-22T00:06:27.417Z,37.10
2019-02-22T00:07:27.395Z,38.80
2019-02-22T00:08:27.414Z,37.40
2019-02-22T00:09:27.402Z,37.70
2019-02-22T00:10:27.358Z,37.70
2019-02-22T00:11:27.349Z,39.40
2019-02-22T00:12:27.337Z,39.40
2019-02-22T00:13:27.332Z,39.10
2019-02-22T00:14:27.339Z,38.40
2019-02-22T00:15:27.306Z,40.00
2019-02-22T00:16:27.295Z,39.90
2019-02-22T00:17:27.280Z,39.40
2019-02-22T00:18:27.273Z,39.90
2019-02-22T00:19:27.290Z,37.90
2019-02-22T00:20:27.279Z,40.00
2019-02-22T00:21:27.236Z,39.40
2019-02-22T00:22:27.231Z,39.60
2019-02-22T00:23:27.225Z,39.30
2019-02-22T00:24:27.244Z,39.50
2019-02-22T00:25:27.197Z,38.50
2019-02-22T00:26:27.181Z,38.60
2019-02-22T00:27:27.170Z,38.60
2019-02-22T00:28:27.194Z,40.30
2019-02-22T00:29:27.180Z,38.50
2019-02-22T00:30:27.142Z,40.00
2019-02-22T00:31:27.134Z,37.80
2019-02-22T00:32:27.112Z,38.50
2019-02-22T00:33:27.105Z,38.70
2019-02-22T00:34:27.114Z,38.50
2019-02-22T00:35:27.286Z,38.30
2019-02-22T00:36:27.163Z,39.10
2019-02-22T00:37:27.096Z,37.70
2019-02-22T00:38:27.225Z,39.90
2019-02-22T00:39:27.036Z,39.00
2019-02-22T00:40:27.041Z,39.40
2019-02-22T00:41:27.015Z,38.90
2019-02-22T00:42:27.026Z,37.20
2019-02-22T00:43:26.993Z,38.00
2019-02-22T00:44:26.985Z,38.70
2019-02-22T00:45:26.974Z,38.80
2019-02-22T00:46:26.975Z,37.70
2019-02-22T00:47:26.978Z,39.10
2019-02-22T00:48:26.961Z,38.90
2019-02-22T00:49:26.926Z,37.90
2019-02-22T00:50:26.946Z,38.80
2019-02-22T00:51:26.934Z,38.70
2019-02-22T00:52:26.896Z,38.70
2019-02-22T00:53:26.891Z,38.50
2019-02-22T00:54:26.870Z,37.10
2019-02-22T00:55:26.859Z,37.50
2019-02-22T00:56:26.853Z,40.00
2019-02-22T00:57:26.873Z,38.50
2019-02-22T00:58:26.827Z,38.70
2019-02-22T00:59:26.813Z,38.20
2019-02-22T01:00:26.808Z,40.30
2019-02-22T01:01:26.790Z,39.70
2019-02-22T01:02:26.778Z,37.90
2019-02-22T01:03:26.797Z,38.50
2019-02-22T01:04:26.759Z,39.00
2019-02-22T01:05:26.755Z,38.80
2019-02-22T01:06:26.735Z,38.30
2019-02-22T01:07:26.728Z,38.50
2019-02-22T01:08:26.720Z,40.00
2019-02-22T01:09:26.722Z,38.50
2019-02-22T01:10:31.358Z,38.30
2019-02-22T01:11:26.682Z,39.40
2019-02-22T01:12:26.667Z,39.80
2019-02-22T01:13:26.656Z,40.80
2019-02-22T01:14:26.653Z,40.70
2019-02-22T01:15:26.677Z,39.90
2019-02-22T01:16:26.625Z,39.70
2019-02-22T01:17:26.612Z,40.20
2019-02-22T01:18:26.605Z,40.80
2019-02-22T01:19:26.620Z,41.40
2019-02-22T01:20:26.592Z,42.20
2019-02-22T01:21:26.571Z,42.30
2019-02-22T01:22:26.557Z,40.90
2019-02-22T01:23:26.546Z,41.80
2019-02-22T01:24:26.538Z,39.50
2019-02-22T01:25:26.580Z,41.80
2019-02-22T01:26:26.521Z,40.60
2019-02-22T01:27:26.504Z,41.40
2019-02-22T01:28:26.491Z,40.30
2019-02-22T01:29:26.527Z,40.30
2019-02-22T01:30:26.530Z,40.70
2019-02-22T01:31:26.459Z,41.00
2019-02-22T01:32:26.451Z,38.90
2019-02-22T01:33:26.437Z,40.80
2019-02-22T01:34:26.427Z,40.40
2019-02-22T01:35:26.413Z,40.00
2019-02-22T01:36:26.471Z,40.70
2019-02-22T01:37:26.393Z,39.20
2019-02-22T01:38:26.379Z,38.70
2019-02-22T01:39:26.375Z,40.80
2019-02-22T01:40:26.368Z,40.70
2019-02-22T01:41:26.350Z,39.80
2019-02-22T01:42:26.374Z,40.50
2019-02-22T01:43:26.327Z,39.70
2019-02-22T01:44:26.314Z,40.20
2019-02-22T01:45:26.307Z,40.30
2019-02-22T01:46:26.291Z,39.50
2019-02-22T01:47:26.281Z,40.50
2019-02-22T01:48:26.284Z,40.50
2019-02-22T01:49:26.273Z,40.80
2019-02-22T01:50:26.256Z,41.10
2019-02-22T01:51:26.275Z,41.40
2019-02-22T01:52:26.226Z,41.40
2019-02-22T01:53:26.243Z,40.50
2019-02-22T01:54:26.221Z,40.80
2019-02-22T01:55:26.196Z,40.90
2019-02-22T01:56:26.193Z,39.30
2019-02-22T01:57:26.208Z,40.20
2019-02-22T01:58:26.161Z,39.60
2019-02-22T01:59:26.175Z,38.90
2019-02-22T02:00:26.135Z,40.00
2019-02-22T02:01:26.128Z,38.10
2019-02-22T02:02:26.123Z,38.00
2019-02-22T02:03:26.103Z,39.00
2019-02-22T02:04:26.139Z,37.10
2019-02-22T02:05:26.089Z,39.60
2019-02-22T02:06:26.069Z,36.60
2019-02-22T02:07:26.064Z,39.00
2019-02-22T02:08:26.050Z,38.00
2019-02-22T02:09:26.036Z,39.20
2019-02-22T02:10:26.056Z,37.70
2019-02-22T02:11:26.014Z,38.00
2019-02-22T02:12:26.004Z,37.40
2019-02-22T02:13:25.996Z,36.40
2019-02-22T02:14:25.981Z,39.30
2019-02-22T02:15:25.977Z,38.70
2019-02-22T02:16:25.973Z,37.60
2019-02-22T02:17:25.980Z,38.80
2019-02-22T02:18:25.966Z,40.70
2019-02-22T02:19:25.931Z,38.70
2019-02-22T02:20:25.961Z,37.80
2019-02-22T02:21:25.937Z,38.20
2019-02-22T02:22:25.895Z,37.90
2019-02-22T02:23:25.885Z,37.10
2019-02-22T02:24:25.880Z,39.70
2019-02-22T02:25:25.857Z,38.10
2019-02-22T02:26:25.895Z,39.30
2019-02-22T02:27:25.838Z,39.40
2019-02-22T02:28:25.829Z,38.20
2019-02-22T02:29:25.824Z,39.50
2019-02-22T02:30:25.805Z,37.90
2019-02-22T02:31:25.792Z,38.40
2019-02-22T02:32:25.796Z,40.30
2019-02-22T02:33:25.770Z,38.70
2019-02-22T02:34:25.757Z,38.70
2019-02-22T02:35:25.748Z,39.70
2019-02-22T02:36:25.736Z,39.90
2019-02-22T02:37:25.759Z,38.70
2019-02-22T02:38:25.719Z,40.20
2019-02-22T02:39:25.742Z,39.40
2019-02-22T02:40:25.691Z,40.00
2019-02-22T02:41:25.681Z,40.00
2019-02-22T02:42:25.669Z,41.00
2019-02-22T02:43:25.660Z,40.40
2019-02-22T02:44:25.825Z,42.80
2019-02-22T02:45:25.654Z,41.70
2019-02-22T02:46:25.626Z,40.50
2019-02-22T02:47:25.613Z,41.60
2019-02-22T02:48:25.601Z,41.40
2019-02-22T02:49:25.605Z,41.00
2019-02-22T02:50:25.611Z,40.70
2019-02-22T02:51:25.577Z,41.10
2019-02-22T02:52:25.562Z,40.90
2019-02-22T02:53:25.547Z,42.50
2019-02-22T02:54:25.592Z,42.50
2019-02-22T02:55:25.524Z,40.60
2019-02-22T02:56:25.586Z,41.40
2019-02-22T02:57:25.506Z,41.70
2019-02-22T02:58:25.491Z,40.40
2019-02-22T02:59:25.478Z,41.40
2019-02-22T03:00:25.471Z,41.50
2019-02-22T03:01:25.492Z,41.70
2019-02-22T03:02:25.449Z,41.80
2019-02-22T03:03:25.435Z,40.60
2019-02-22T03:04:25.424Z,43.40
2019-02-22T03:05:25.421Z,42.80
2019-02-22T03:06:25.426Z,43.00
2019-02-22T03:07:25.399Z,43.80
2019-02-22T03:08:25.382Z,40.80
2019-02-22T03:09:25.373Z,42.80
2019-02-22T03:10:25.361Z,42.50
2019-02-22T03:11:25.352Z,43.10
2019-02-22T03:12:25.351Z,43.30
2019-02-22T03:13:25.323Z,43.80
2019-02-22T03:14:25.322Z,42.60
2019-02-22T03:15:25.305Z,43.90
2019-02-22T03:16:25.303Z,44.50
2019-02-22T03:17:25.325Z,43.90
2019-02-22T03:18:25.271Z,44.10
2019-02-22T03:19:25.307Z,44.80
2019-02-22T03:20:25.249Z,43.30
2019-02-22T03:21:25.248Z,46.60
2019-02-22T03:22:25.231Z,44.80
2019-02-22T03:23:25.241Z,43.40
2019-02-22T03:24:25.239Z,44.20
2019-02-22T03:25:25.200Z,43.80
2019-02-22T03:26:25.180Z,44.00
2019-02-22T03:27:25.171Z,44.10
2019-02-22T03:28:25.159Z,45.10
2019-02-22T03:29:25.172Z,44.30
2019-02-22T03:30:25.155Z,43.20
2019-02-22T03:31:25.139Z,43.50
2019-02-22T03:32:25.126Z,43.00
2019-02-22T03:33:25.126Z,43.40
2019-02-22T03:34:25.121Z,44.40
2019-02-22T03:35:25.080Z,44.20
2019-02-22T03:36:25.070Z,42.30
2019-02-22T03:37:25.120Z,43.10
2019-02-22T03:38:25.049Z,42.70
2019-02-22T03:39:25.037Z,42.10
2019-02-22T03:40:25.033Z,42.60
2019-02-22T03:41:33.066Z,43.20
2019-02-22T03:42:26.001Z,43.60
2019-02-22T03:43:25.003Z,44.70
2019-02-22T03:44:25.011Z,40.90
2019-02-22T03:45:24.969Z,42.20
2019-02-22T03:46:25.078Z,42.20
2019-02-22T03:47:24.955Z,43.10
2019-02-22T03:48:25.041Z,42.30
2019-02-22T03:49:24.930Z,41.60
2019-02-22T03:50:24.912Z,43.10
2019-02-22T03:51:24.903Z,42.30
2019-02-22T03:52:24.907Z,41.90
2019-02-22T03:53:24.887Z,42.20
2019-02-22T03:54:24.876Z,43.90
2019-02-22T03:55:24.859Z,43.10
2019-02-22T03:56:24.852Z,42.20
2019-02-22T03:57:24.887Z,42.00
2019-02-22T03:58:24.824Z,42.70
2019-02-22T03:59:24.894Z,42.40
2019-02-22T04:00:24.805Z,43.00
2019-02-22T04:01:24.802Z,42.70
2019-02-22T04:02:24.781Z,41.90
2019-02-22T04:03:24.792Z,42.90
2019-02-22T04:04:24.766Z,44.90
2019-02-22T04:05:24.793Z,44.00
2019-02-22T04:06:24.737Z,44.40
2019-02-22T04:07:24.727Z,44.20
2019-02-22T04:08:24.732Z,46.10
2019-02-22T04:09:24.709Z,45.90
2019-02-22T04:10:24.727Z,44.60
2019-02-22T04:11:24.689Z,45.50
2019-02-22T04:12:24.679Z,44.70
2019-02-22T04:13:24.660Z,44.60
2019-02-22T04:14:24.687Z,43.80
2019-02-22T04:15:24.639Z,43.40
2019-02-22T04:16:24.622Z,45.70
2019-02-22T04:17:24.623Z,44.00
2019-02-22T04:18:24.602Z,44.30
2019-02-22T04:19:24.615Z,41.80
2019-02-22T04:20:24.621Z,42.30
2019-02-22T04:21:24.577Z,43.20
2019-02-22T04:22:24.561Z,42.00
2019-02-22T04:23:24.547Z,42.50
2019-02-22T04:24:24.537Z,43.50
2019-02-22T04:25:24.523Z,44.80
2019-02-22T04:26:24.532Z,43.00
2019-02-22T04:27:24.503Z,43.10
2019-02-22T04:28:24.498Z,42.10
2019-02-22T04:29:24.484Z,42.40
2019-02-22T04:30:24.468Z,44.10
2019-02-22T04:31:24.496Z,42.60
2019-02-22T04:32:24.449Z,43.00
2019-02-22T04:33:24.438Z,43.00
2019-02-22T04:34:24.481Z,42.40
2019-02-22T04:35:24.415Z,43.30
2019-02-22T04:36:24.414Z,44.20
2019-02-22T04:37:24.393Z,44.00
2019-02-22T04:38:24.384Z,45.10
2019-02-22T04:39:24.373Z,42.20
2019-02-22T04:40:24.358Z,45.80
2019-02-22T04:41:24.398Z,43.80
2019-02-22T04:42:24.336Z,44.60
2019-02-22T04:43:24.325Z,43.80
2019-02-22T04:44:24.320Z,44.60
2019-02-22T04:45:24.306Z,42.60
2019-02-22T04:46:24.304Z,42.50
2019-02-22T04:47:24.284Z,43.20
2019-02-22T04:48:24.271Z,44.10
2019-02-22T04:50:31.347Z,43.80
2019-02-22T04:51:24.239Z,45.50
2019-02-22T04:52:24.252Z,42.40
2019-02-22T04:53:24.214Z,43.30
2019-02-22T04:54:24.203Z,40.10
2019-02-22T04:55:24.198Z,40.70
2019-02-22T04:56:24.183Z,40.50
2019-02-22T04:57:24.173Z,40.70
2019-02-22T04:58:24.207Z,39.30
2019-02-22T04:59:24.150Z,40.00
2019-02-22T05:00:24.139Z,38.90
2019-02-22T05:01:24.136Z,39.80
2019-02-22T05:02:24.129Z,39.50
2019-02-22T05:03:24.105Z,38.20
2019-02-22T05:04:24.125Z,37.50
2019-02-22T05:05:24.081Z,37.00
2019-02-22T05:06:24.072Z,37.10
2019-02-22T05:07:24.064Z,37.20
2019-02-22T05:08:24.046Z,35.90
2019-02-22T05:09:24.045Z,36.90
2019-02-22T05:10:24.042Z,36.60
2019-02-22T05:11:24.017Z,35.80
2019-02-22T05:12:24.004Z,35.00
2019-02-22T05:13:24.000Z,35.90
2019-02-22T05:14:24.006Z,36.00
2019-02-22T05:15:23.975Z,36.10
2019-02-22T05:16:23.961Z,36.20
2019-02-22T05:17:23.949Z,35.00
2019-02-22T05:18:23.941Z,35.30
2019-02-22T05:19:23.967Z,36.70
2019-02-22T05:20:23.917Z,36.40
2019-02-22T05:21:23.907Z,36.00
2019-02-22T05:22:23.895Z,36.30
2019-02-22T05:23:23.891Z,36.00
2019-02-22T05:24:23.911Z,34.70
2019-02-22T05:25:23.865Z,33.90
2019-02-22T05:26:23.852Z,36.10
2019-02-22T05:27:23.836Z,35.50
2019-02-22T05:28:23.850Z,33.10
2019-02-22T05:29:23.816Z,34.40
2019-02-22T05:30:23.837Z,32.90
2019-02-22T05:31:23.804Z,32.80
2019-02-22T05:32:23.779Z,33.10
2019-02-22T05:33:23.773Z,34.20
2019-02-22T05:34:23.770Z,31.40
2019-02-22T05:35:23.754Z,33.20
2019-02-22T05:36:23.752Z,31.80
2019-02-22T05:37:23.727Z,32.70
2019-02-22T05:38:23.720Z,31.40
2019-02-22T05:39:23.703Z,30.30
2019-02-22T05:40:23.709Z,30.50
2019-02-22T05:41:23.698Z,29.60
2019-02-22T05:42:23.704Z,29.90
2019-02-22T05:43:23.663Z,30.00
2019-02-22T05:44:23.652Z,30.40
2019-02-22T05:45:23.660Z,30.40
2019-02-22T05:46:23.632Z,30.20
2019-02-22T05:47:23.616Z,30.10
2019-02-22T05:48:25.475Z,29.90
2019-02-22T05:49:23.594Z,29.40
2019-02-22T05:50:23.596Z,30.00
2019-02-22T05:51:23.572Z,29.40
2019-02-22T05:52:23.584Z,28.90
2019-02-22T05:53:23.561Z,30.70
2019-02-22T05:54:23.546Z,29.30
2019-02-22T05:55:23.532Z,30.50
2019-02-22T05:56:23.531Z,29.20
2019-02-22T05:57:23.507Z,29.90
2019-02-22T05:58:23.491Z,29.50
2019-02-22T05:59:23.483Z,29.90
2019-02-22T06:00:23.471Z,30.30
2019-02-22T06:01:23.479Z,28.80
2019-02-22T06:02:23.460Z,30.50
2019-02-22T06:03:23.440Z,28.40
2019-02-22T06:04:23.426Z,28.60
2019-02-22T06:05:23.416Z,29.50
2019-02-22T06:06:23.406Z,30.50
2019-02-22T06:07:23.407Z,30.20
2019-02-22T06:08:23.384Z,30.50
2019-02-22T06:09:23.370Z,28.80
2019-02-22T06:10:23.360Z,28.80
2019-02-22T06:11:23.354Z,29.70
2019-02-22T06:12:33.875Z,28.10
2019-02-22T06:13:24.325Z,28.40
2019-02-22T06:14:23.313Z,28.10
2019-02-22T06:15:23.303Z,29.00
2019-02-22T06:16:23.299Z,28.20
2019-02-22T06:17:23.292Z,29.60
2019-02-22T06:18:23.382Z,30.50
2019-02-22T06:19:23.264Z,28.80
2019-02-22T06:20:23.256Z,29.90
2019-02-22T06:21:23.237Z,31.00
2019-02-22T06:22:29.562Z,30.40
2019-02-22T06:23:24.256Z,30.50
2019-02-22T06:24:23.203Z,30.70
2019-02-22T06:25:23.193Z,30.80
2019-02-22T06:26:23.183Z,32.30
2019-02-22T06:27:23.174Z,32.50
2019-02-22T06:28:23.185Z,33.40
2019-02-22T06:29:23.163Z,32.50
2019-02-22T06:30:23.141Z,33.00
2019-02-22T06:31:23.139Z,34.30
2019-02-22T06:32:23.121Z,32.80
2019-02-22T06:33:23.104Z,31.80
2019-02-22T06:34:23.126Z,31.60
2019-02-22T06:35:23.083Z,32.90
2019-02-22T06:36:23.080Z,32.40
2019-02-22T06:37:23.061Z,32.00
2019-02-22T06:38:23.051Z,31.70
2019-02-22T06:39:23.049Z,32.60
2019-02-22T06:40:23.057Z,31.90
2019-02-22T06:41:23.019Z,32.50
2019-02-22T06:42:23.010Z,31.20
2019-02-22T06:43:22.994Z,32.10
2019-02-22T06:44:22.985Z,31.90
2019-02-22T06:45:22.977Z,33.80
2019-02-22T06:46:22.976Z,32.40
2019-02-22T06:47:23.074Z,30.90
2019-02-22T06:48:22.941Z,33.00
2019-02-22T06:49:22.932Z,31.60
2019-02-22T06:50:33.298Z,32.80
2019-02-22T06:51:23.908Z,33.40
2019-02-22T06:52:22.922Z,32.30
2019-02-22T06:53:22.885Z,32.30
2019-02-22T06:54:22.876Z,32.40
2019-02-22T06:55:22.865Z,32.00
2019-02-22T06:56:24.297Z,32.90
2019-02-22T06:57:22.853Z,31.70
2019-02-22T06:58:22.833Z,31.90
2019-02-22T06:59:22.822Z,32.20
2019-02-22T07:00:22.814Z,32.80
2019-02-22T07:01:22.801Z,32.90
2019-02-22T07:02:22.807Z,33.70
2019-02-22T07:03:22.782Z,32.50
2019-02-22T07:04:22.778Z,33.10
2019-02-22T07:05:22.757Z,32.30
2019-02-22T07:06:22.745Z,34.70
2019-02-22T07:07:22.744Z,34.10
2019-02-22T07:08:22.733Z,33.90
2019-02-22T07:09:22.712Z,34.60
2019-02-22T07:10:22.719Z,35.20
2019-02-22T07:11:22.690Z,34.00
2019-02-22T07:12:22.675Z,35.00
2019-02-22T07:13:24.508Z,34.70
2019-02-22T07:14:22.701Z,36.00
2019-02-22T07:15:22.648Z,35.60
2019-02-22T07:16:22.643Z,34.20
2019-02-22T07:17:22.624Z,34.70
2019-02-22T07:18:22.625Z,35.80
2019-02-22T07:19:22.601Z,35.70
2019-02-22T07:20:22.605Z,35.70
2019-02-22T07:21:22.580Z,36.40
2019-02-22T07:22:22.572Z,35.80
2019-02-22T07:23:22.562Z,34.80
2019-02-22T07:24:22.555Z,35.40
2019-02-22T07:25:22.568Z,36.40
2019-02-22T07:26:22.522Z,35.50
2019-02-22T07:27:22.512Z,36.10
2019-02-22T07:28:22.500Z,36.10
2019-02-22T07:29:22.490Z,34.30
2019-02-22T07:30:22.479Z,35.80
2019-02-22T07:31:22.565Z,35.40
2019-02-22T07:32:22.459Z,33.60
2019-02-22T07:33:22.445Z,33.90
2019-02-22T07:34:22.434Z,33.90
2019-02-22T07:35:22.456Z,34.70
2019-02-22T07:36:22.445Z,33.10
2019-02-22T07:37:22.407Z,33.00
2019-02-22T07:38:22.393Z,34.60
2019-02-22T07:39:27.879Z,32.60
2019-02-22T07:40:23.378Z,34.10
2019-02-22T07:41:22.359Z,33.80
2019-02-22T07:42:22.374Z,31.60
2019-02-22T07:43:22.337Z,31.50
2019-02-22T07:44:22.323Z,33.50
2019-02-22T07:45:22.314Z,32.10
2019-02-22T07:46:22.302Z,31.70
2019-02-22T07:47:22.315Z,32.10
2019-02-22T07:48:22.278Z,32.10
2019-02-22T07:49:22.277Z,32.40
2019-02-22T07:50:22.268Z,32.90
2019-02-22T07:51:22.247Z,30.70
2019-02-22T07:52:22.273Z,31.70
2019-02-22T07:53:22.233Z,32.20
2019-02-22T07:54:22.214Z,32.30
2019-02-22T07:55:22.203Z,29.50
2019-02-22T07:56:22.193Z,29.30
2019-02-22T07:57:22.182Z,29.30
2019-02-22T07:58:22.194Z,28.60
2019-02-22T07:59:22.169Z,26.30
2019-02-22T08:00:22.151Z,25.50
2019-02-22T08:01:22.144Z,26.20
2019-02-22T08:02:22.150Z,25.90
2019-02-22T08:03:22.155Z,25.90
2019-02-22T08:04:22.122Z,25.90
2019-02-22T08:05:22.101Z,26.00
2019-02-22T08:06:22.085Z,26.50
2019-02-22T08:07:22.072Z,26.80
2019-02-22T08:08:22.089Z,26.60
2019-02-22T08:09:22.061Z,25.40
2019-02-22T08:10:22.038Z,25.10
2019-02-22T08:11:22.031Z,26.00
2019-02-22T08:12:22.020Z,24.90
2019-02-22T08:13:22.014Z,25.60
2019-02-22T08:14:22.031Z,25.60
2019-02-22T08:15:21.983Z,25.30
2019-02-22T08:16:21.975Z,24.40
2019-02-22T08:17:21.968Z,24.50
2019-02-22T08:18:21.951Z,23.20
2019-02-22T08:19:21.975Z,24.00
2019-02-22T08:20:21.931Z,23.70
2019-02-22T08:21:21.928Z,24.80
2019-02-22T08:22:21.910Z,25.70
2019-02-22T08:23:21.907Z,25.10
2019-02-22T08:24:21.892Z,25.30
2019-02-22T08:25:21.915Z,25.10
2019-02-22T08:26:21.873Z,25.60
2019-02-22T08:27:21.861Z,24.90
2019-02-22T08:28:21.847Z,25.30
2019-02-22T08:29:21.894Z,25.30
2019-02-22T08:30:21.832Z,24.40
2019-02-22T08:31:21.837Z,24.40
2019-02-22T08:32:21.806Z,23.80
2019-02-22T08:33:21.802Z,24.50
2019-02-22T08:34:21.783Z,23.80
2019-02-22T08:35:21.803Z,23.40
2019-02-22T08:36:21.756Z,24.70
2019-02-22T08:37:21.745Z,24.60
2019-02-22T08:38:21.739Z,25.10
2019-02-22T08:39:21.731Z,24.00
2019-02-22T08:40:21.767Z,23.70
2019-02-22T08:41:21.701Z,24.60
2019-02-22T08:42:21.693Z,24.10
2019-02-22T08:43:31.165Z,24.70
2019-02-22T08:44:22.668Z,24.00
2019-02-22T08:45:21.660Z,24.80
2019-02-22T08:46:21.684Z,24.30
2019-02-22T08:47:21.669Z,23.40
2019-02-22T08:48:21.627Z,25.50
2019-02-22T08:49:21.616Z,25.00
2019-02-22T08:50:21.624Z,25.80
2019-02-22T08:51:21.593Z,25.30
2019-02-22T08:52:21.627Z,24.90
2019-02-22T08:53:21.572Z,25.20
2019-02-22T08:54:21.562Z,25.50
2019-02-22T08:55:21.639Z,25.70
2019-02-22T08:56:21.548Z,24.60
2019-02-22T08:57:21.538Z,26.40
2019-02-22T08:58:21.518Z,26.60
2019-02-22T08:59:21.538Z,27.20
2019-02-22T09:00:21.493Z,27.20
2019-02-22T09:01:21.484Z,27.40
2019-02-22T09:02:21.471Z,27.10
2019-02-22T09:03:21.538Z,26.80
2019-02-22T09:04:21.463Z,28.00
2019-02-22T09:05:21.473Z,26.20
2019-02-22T09:06:21.429Z,27.50
2019-02-22T09:07:21.416Z,27.70
2019-02-22T09:08:21.439Z,29.00
2019-02-22T09:09:21.405Z,26.40
2019-02-22T09:10:21.410Z,27.10
2019-02-22T09:11:21.372Z,27.90
2019-02-22T09:12:21.364Z,28.00
2019-02-22T09:13:21.352Z,28.50
2019-02-22T09:14:21.340Z,27.90
2019-02-22T09:15:21.364Z,27.30
2019-02-22T09:16:21.319Z,27.80
2019-02-22T09:17:21.311Z,28.70
2019-02-22T09:18:21.297Z,27.60
2019-02-22T09:19:21.284Z,28.40
2019-02-22T09:20:21.303Z,28.90
2019-02-22T09:21:21.269Z,29.20
2019-02-22T09:22:23.139Z,29.00
2019-02-22T09:23:21.246Z,28.90
2019-02-22T09:24:21.277Z,28.70
2019-02-22T09:25:21.220Z,28.90
2019-02-22T09:26:21.211Z,29.00
2019-02-22T09:27:21.201Z,28.10
2019-02-22T09:28:21.193Z,29.40
2019-02-22T09:29:21.181Z,29.10
2019-02-22T09:30:21.187Z,29.50
2019-02-22T09:31:21.155Z,28.90
2019-02-22T09:32:21.146Z,29.00
2019-02-22T09:33:21.137Z,29.90
2019-02-22T09:34:21.129Z,31.20
2019-02-22T09:35:21.125Z,33.30
2019-02-22T09:36:21.103Z,31.40
2019-02-22T09:37:21.088Z,30.90
2019-02-22T09:38:21.081Z,31.90
2019-02-22T09:39:21.071Z,30.00
2019-02-22T09:40:21.104Z,32.10
2019-02-22T09:41:21.046Z,32.50
2019-02-22T09:42:21.035Z,31.20
2019-02-22T09:43:21.027Z,29.80
2019-02-22T09:44:21.014Z,30.50
2019-02-22T09:45:21.003Z,30.70
2019-02-22T09:46:21.045Z,30.80
2019-02-22T09:47:20.979Z,32.70
2019-02-22T09:48:21.029Z,32.50
2019-02-22T09:49:20.960Z,31.10
2019-02-22T09:50:20.951Z,32.00
2019-02-22T09:51:20.945Z,30.40
2019-02-22T09:52:20.962Z,31.40
2019-02-22T09:53:20.915Z,29.60
2019-02-22T09:54:20.910Z,32.10
2019-02-22T09:55:20.892Z,32.20
2019-02-22T09:56:20.916Z,31.50
2019-02-22T09:57:20.907Z,31.40
2019-02-22T09:58:20.876Z,30.80
2019-02-22T09:59:20.849Z,31.10
2019-02-22T10:00:20.841Z,30.80
2019-02-22T10:01:20.828Z,31.30
2019-02-22T10:02:20.869Z,33.20
2019-02-22T10:03:20.807Z,31.90
2019-02-22T10:04:20.799Z,31.60
2019-02-22T10:05:20.793Z,34.20
2019-02-22T10:06:20.772Z,33.70
2019-02-22T10:07:20.763Z,32.50
2019-02-22T10:08:20.775Z,32.70
2019-02-22T10:09:20.739Z,33.20
2019-02-22T10:10:20.786Z,33.70
2019-02-22T10:11:20.795Z,32.60
2019-02-22T10:12:20.722Z,33.10
2019-02-22T10:13:20.700Z,32.70
2019-02-22T10:14:20.686Z,33.60
2019-02-22T10:15:20.685Z,32.90
2019-02-22T10:16:20.666Z,33.30
2019-02-22T10:17:20.690Z,33.00
2019-02-22T10:18:20.648Z,34.90
2019-02-22T10:19:20.629Z,33.70
2019-02-22T10:20:20.620Z,32.60
2019-02-22T10:21:20.610Z,33.60
2019-02-22T10:22:20.601Z,34.70
2019-02-22T10:23:20.621Z,32.90
2019-02-22T10:24:20.582Z,33.40
2019-02-22T10:25:20.566Z,32.60
2019-02-22T10:26:21.491Z,35.10
2019-02-22T10:27:20.567Z,33.90
2019-02-22T10:28:20.532Z,34.60
2019-02-22T10:29:20.520Z,33.60
2019-02-22T10:30:20.513Z,33.70
2019-02-22T10:31:20.502Z,33.40
2019-02-22T10:32:20.536Z,33.10
2019-02-22T10:33:20.508Z,35.20
2019-02-22T10:34:20.489Z,34.80
2019-02-22T10:35:20.465Z,33.40
2019-02-22T10:36:20.476Z,34.80
2019-02-22T10:37:20.471Z,34.70
2019-02-22T10:38:20.430Z,33.60
2019-02-22T10:39:20.422Z,34.60
2019-02-22T10:40:20.404Z,33.40
2019-02-22T10:41:20.393Z,34.00
2019-02-22T10:42:20.408Z,35.20
2019-02-22T10:43:20.405Z,35.60
2019-02-22T10:44:20.359Z,34.50
2019-02-22T10:45:20.349Z,34.80
2019-02-22T10:46:22.262Z,34.80
2019-02-22T10:47:20.329Z,34.30
2019-02-22T10:48:20.317Z,35.00
2019-02-22T10:49:20.340Z,34.40
2019-02-22T10:50:27.333Z,33.40
2019-02-22T10:51:20.317Z,34.90
2019-02-22T10:52:20.278Z,34.30
2019-02-22T10:53:20.262Z,33.80
2019-02-22T10:54:20.261Z,33.10
2019-02-22T10:55:20.261Z,32.20
2019-02-22T10:56:20.229Z,33.40
2019-02-22T10:57:20.221Z,33.80
2019-02-22T10:58:20.206Z,32.40
2019-02-22T10:59:20.192Z,34.20
2019-02-22T11:00:20.217Z,33.40
2019-02-22T11:01:20.177Z,33.50
2019-02-22T11:02:20.165Z,32.80
2019-02-22T11:03:20.151Z,32.20
2019-02-22T11:04:20.146Z,35.80
2019-02-22T11:05:20.133Z,36.20
2019-02-22T11:06:20.152Z,36.00
2019-02-22T11:07:20.115Z,34.10
2019-02-22T11:08:20.118Z,34.10
2019-02-22T11:09:20.084Z,35.80
2019-02-22T11:10:20.073Z,36.50
2019-02-22T11:11:20.063Z,36.50
2019-02-22T11:12:20.069Z,34.80
2019-02-22T11:13:21.405Z,36.00
2019-02-22T11:14:28.939Z,33.30
2019-02-22T11:15:21.024Z,35.80
2019-02-22T11:16:20.013Z,34.70
2019-02-22T11:17:20.033Z,33.10
2019-02-22T11:18:19.986Z,32.20
2019-02-22T11:19:19.974Z,32.50
2019-02-22T11:20:19.963Z,31.50
2019-02-22T11:21:19.960Z,31.90
2019-02-22T11:22:19.975Z,32.40
2019-02-22T11:23:19.935Z,30.90
2019-02-22T11:24:20.132Z,31.90
2019-02-22T11:25:19.917Z,33.20
2019-02-22T11:26:19.900Z,33.80
2019-02-22T11:27:19.891Z,34.10
2019-02-22T11:28:19.912Z,35.30
2019-02-22T11:29:19.868Z,34.90
2019-02-22T11:30:19.893Z,33.10
2019-02-22T11:31:19.845Z,32.50
2019-02-22T11:32:19.835Z,33.50
2019-02-22T11:33:19.849Z,33.30
2019-02-22T11:34:19.816Z,33.10
2019-02-22T11:35:19.802Z,33.40
2019-02-22T11:36:19.793Z,34.00
2019-02-22T11:37:19.780Z,32.50
2019-02-22T11:38:19.825Z,34.80
2019-02-22T11:39:19.756Z,33.30
2019-02-22T11:40:19.746Z,34.90
2019-02-22T11:41:19.738Z,34.40
2019-02-22T11:42:19.725Z,34.80
2019-02-22T11:43:19.714Z,35.30
2019-02-22T11:44:19.727Z,36.80
2019-02-22T11:45:19.697Z,36.90
2019-02-22T11:46:19.688Z,35.30
2019-02-22T11:47:19.671Z,37.50
2019-02-22T11:48:19.664Z,35.30
2019-02-22T11:49:19.705Z,36.60
2019-02-22T11:50:19.635Z,36.70
2019-02-22T11:51:19.628Z,37.20
2019-02-22T11:52:19.614Z,38.60
2019-02-22T11:53:19.606Z,38.20
2019-02-22T11:54:19.596Z,37.60
2019-02-22T11:55:19.619Z,35.90
2019-02-22T11:56:19.572Z,36.30
2019-02-22T11:57:19.721Z,36.40
2019-02-22T11:58:19.558Z,34.80
2019-02-22T11:59:19.536Z,35.40
2019-02-22T12:00:19.564Z,35.60
2019-02-22T12:01:19.516Z,35.40
2019-02-22T12:02:19.511Z,35.60
2019-02-22T12:03:24.645Z,35.40
2019-02-22T12:04:20.484Z,34.10
2019-02-22T12:05:19.475Z,34.20
2019-02-22T12:06:19.502Z,33.50
2019-02-22T12:07:19.454Z,33.00
2019-02-22T12:08:19.448Z,31.00
2019-02-22T12:09:19.432Z,31.70
2019-02-22T12:10:19.419Z,31.40
2019-02-22T12:11:19.460Z,32.30
2019-02-22T12:12:19.398Z,30.90
2019-02-22T12:13:19.387Z,29.40
2019-02-22T12:14:19.402Z,28.80
2019-02-22T12:15:19.365Z,27.00
2019-02-22T12:16:19.360Z,26.70
2019-02-22T12:17:19.376Z,26.20
2019-02-22T12:18:19.333Z,26.90
2019-02-22T12:19:19.321Z,27.40
2019-02-22T12:20:19.316Z,25.30
2019-02-22T12:21:19.301Z,26.00
2019-02-22T12:22:19.346Z,24.90
2019-02-22T12:23:19.282Z,25.50
2019-02-22T12:24:19.267Z,25.30
2019-02-22T12:25:19.257Z,27.00
2019-02-22T12:26:19.245Z,27.10
2019-02-22T12:27:19.232Z,26.20
2019-02-22T12:28:19.257Z,26.00
2019-02-22T12:29:19.212Z,24.50
2019-02-22T12:30:19.208Z,24.20
2019-02-22T12:31:19.220Z,25.90
2019-02-22T12:32:19.180Z,25.00
2019-02-22T12:33:19.167Z,25.40
2019-02-22T12:34:19.193Z,25.30
2019-02-22T12:35:19.148Z,25.30
2019-02-22T12:36:19.137Z,24.80
2019-02-22T12:37:19.125Z,26.60
2019-02-22T12:38:19.115Z,25.20
2019-02-22T12:39:19.157Z,24.90
2019-02-22T12:40:19.098Z,23.50
2019-02-22T12:41:19.080Z,22.00
2019-02-22T12:42:19.068Z,24.20
2019-02-22T12:43:19.057Z,22.50
2019-02-22T12:44:19.045Z,22.30
2019-02-22T12:45:19.164Z,21.80
2019-02-22T12:46:19.043Z,22.40
2019-02-22T12:47:19.021Z,20.50
2019-02-22T12:48:19.001Z,20.40
2019-02-22T12:49:18.989Z,21.70
2019-02-22T12:50:19.085Z,21.40
2019-02-22T12:51:18.989Z,21.60
2019-02-22T12:52:18.958Z,20.60
2019-02-22T12:53:18.951Z,21.30